sensor_id;sensor_type;location;lat;lon;timestamp;P1;durP1;ratioP1;P2;durP2;ratioP2
13289;SDS011;6713;50.954;5.310;2023-10-09T00:01:19;6.17;;;5.30;;
13289;SDS011;6713;50.954;5.310;2023-10-09T00:03:45;8.50;;;5.10;;
13289;SDS011;6713;50.954;5.310;2023-10-09T00:06:17;8.87;;;4.90;;
13289;SDS011;6713;50.954;5.310;2023-10-09T00:08:49;8.13;;;4.63;;
13289;SDS011;6713;50.954;5.310;2023-10-09T00:11:19;6.57;;;4.70;;
13289;SDS011;6713;50.954;5.310;2023-10-09T00:13:51;8.50;;;5.93;;
13289;SDS011;6713;50.954;5.310;2023-10-09T00:16:24;6.50;;;5.43;;
13289;SDS011;6713;50.954;5.310;2023-10-09T00:18:58;9.53;;;6.23;;
13289;SDS011;6713;50.954;5.310;2023-10-09T00:21:37;8.27;;;5.03;;
13289;SDS011;6713;50.954;5.310;2023-10-09T00:24:04;6.83;;;4.67;;
13289;SDS011;6713;50.954;5.310;2023-10-09T00:26:38;9.87;;;5.50;;
13289;SDS011;6713;50.954;5.310;2023-10-09T00:29:09;7.17;;;5.00;;
13289;SDS011;6713;50.954;5.310;2023-10-09T00:31:41;7.03;;;5.03;;
13289;SDS011;6713;50.954;5.310;2023-10-09T00:34:15;8.77;;;5.23;;
13289;SDS011;6713;50.954;5.310;2023-10-09T00:36:44;7.27;;;5.87;;
13289;SDS011;6713;50.954;5.310;2023-10-09T00:39:15;8.73;;;4.60;;
13289;SDS011;6713;50.954;5.310;2023-10-09T00:41:48;7.40;;;4.83;;
13289;SDS011;6713;50.954;5.310;2023-10-09T00:44:14;5.73;;;4.10;;
13289;SDS011;6713;50.954;5.310;2023-10-09T00:46:42;4.90;;;4.40;;
13289;SDS011;6713;50.954;5.310;2023-10-09T00:49:08;8.27;;;5.27;;
13289;SDS011;6713;50.954;5.310;2023-10-09T00:51:35;8.07;;;5.27;;
13289;SDS011;6713;50.954;5.310;2023-10-09T00:54:07;6.37;;;4.70;;
13289;SDS011;6713;50.954;5.310;2023-10-09T00:56:39;9.73;;;5.53;;
13289;SDS011;6713;50.954;5.310;2023-10-09T00:59:08;6.93;;;5.20;;
13289;SDS011;6713;50.954;5.310;2023-10-09T01:01:39;6.73;;;4.80;;
13289;SDS011;6713;50.954;5.310;2023-10-09T01:04:12;9.20;;;5.60;;
13289;SDS011;6713;50.954;5.310;2023-10-09T01:06:41;8.27;;;5.73;;
13289;SDS011;6713;50.954;5.310;2023-10-09T01:09:12;12.73;;;5.73;;
13289;SDS011;6713;50.954;5.310;2023-10-09T01:11:39;7.90;;;5.70;;
13289;SDS011;6713;50.954;5.310;2023-10-09T01:14:13;6.77;;;5.37;;
13289;SDS011;6713;50.954;5.310;2023-10-09T01:16:40;10.10;;;5.33;;
13289;SDS011;6713;50.954;5.310;2023-10-09T01:19:08;6.47;;;5.73;;
13289;SDS011;6713;50.954;5.310;2023-10-09T01:21:46;6.43;;;5.07;;
13289;SDS011;6713;50.954;5.310;2023-10-09T01:24:14;10.30;;;5.40;;
13289;SDS011;6713;50.954;5.310;2023-10-09T01:26:41;6.37;;;4.80;;
13289;SDS011;6713;50.954;5.310;2023-10-09T01:29:11;9.87;;;4.93;;
13289;SDS011;6713;50.954;5.310;2023-10-09T01:31:41;9.30;;;6.07;;
13289;SDS011;6713;50.954;5.310;2023-10-09T01:34:12;10.90;;;6.00;;
13289;SDS011;6713;50.954;5.310;2023-10-09T01:36:39;5.67;;;4.87;;
13289;SDS011;6713;50.954;5.310;2023-10-09T01:39:06;6.70;;;5.23;;
13289;SDS011;6713;50.954;5.310;2023-10-09T01:41:48;8.77;;;5.53;;
13289;SDS011;6713;50.954;5.310;2023-10-09T01:44:17;6.30;;;5.67;;
13289;SDS011;6713;50.954;5.310;2023-10-09T01:46:44;9.10;;;5.50;;
13289;SDS011;6713;50.954;5.310;2023-10-09T01:49:11;8.17;;;5.73;;
13289;SDS011;6713;50.954;5.310;2023-10-09T01:51:42;7.30;;;6.17;;
13289;SDS011;6713;50.954;5.310;2023-10-09T01:54:09;10.13;;;6.23;;
13289;SDS011;6713;50.954;5.310;2023-10-09T01:56:41;9.97;;;5.67;;
13289;SDS011;6713;50.954;5.310;2023-10-09T01:59:12;8.70;;;5.87;;
13289;SDS011;6713;50.954;5.310;2023-10-09T02:01:40;7.93;;;6.70;;
13289;SDS011;6713;50.954;5.310;2023-10-09T02:04:12;8.80;;;6.87;;
13289;SDS011;6713;50.954;5.310;2023-10-09T02:06:39;9.07;;;6.00;;
13289;SDS011;6713;50.954;5.310;2023-10-09T02:09:06;10.23;;;6.97;;
13289;SDS011;6713;50.954;5.310;2023-10-09T02:11:32;8.60;;;6.00;;
13289;SDS011;6713;50.954;5.310;2023-10-09T02:14:06;10.00;;;6.70;;
13289;SDS011;6713;50.954;5.310;2023-10-09T02:16:45;11.00;;;6.43;;
13289;SDS011;6713;50.954;5.310;2023-10-09T02:19:27;9.37;;;5.77;;
13289;SDS011;6713;50.954;5.310;2023-10-09T02:21:56;8.80;;;5.97;;
13289;SDS011;6713;50.954;5.310;2023-10-09T02:24:24;8.47;;;5.30;;
13289;SDS011;6713;50.954;5.310;2023-10-09T02:27:06;7.50;;;5.77;;
13289;SDS011;6713;50.954;5.310;2023-10-09T02:29:33;6.50;;;5.20;;
13289;SDS011;6713;50.954;5.310;2023-10-09T02:32:04;8.03;;;5.80;;
13289;SDS011;6713;50.954;5.310;2023-10-09T02:34:39;8.37;;;5.93;;
13289;SDS011;6713;50.954;5.310;2023-10-09T02:37:06;8.50;;;5.70;;
13289;SDS011;6713;50.954;5.310;2023-10-09T02:39:38;8.00;;;5.00;;
13289;SDS011;6713;50.954;5.310;2023-10-09T02:42:08;8.70;;;6.13;;
13289;SDS011;6713;50.954;5.310;2023-10-09T02:44:45;8.13;;;6.40;;
13289;SDS011;6713;50.954;5.310;2023-10-09T02:47:16;12.80;;;6.13;;
13289;SDS011;6713;50.954;5.310;2023-10-09T02:49:45;10.43;;;6.07;;
13289;SDS011;6713;50.954;5.310;2023-10-09T02:52:13;8.73;;;6.30;;
13289;SDS011;6713;50.954;5.310;2023-10-09T02:54:43;10.30;;;6.63;;
13289;SDS011;6713;50.954;5.310;2023-10-09T02:57:12;10.43;;;6.10;;
13289;SDS011;6713;50.954;5.310;2023-10-09T02:59:47;12.53;;;6.77;;
13289;SDS011;6713;50.954;5.310;2023-10-09T03:02:17;11.13;;;6.30;;
13289;SDS011;6713;50.954;5.310;2023-10-09T03:04:44;7.90;;;5.63;;
13289;SDS011;6713;50.954;5.310;2023-10-09T03:07:10;11.17;;;5.73;;
13289;SDS011;6713;50.954;5.310;2023-10-09T03:09:38;10.03;;;6.27;;
13289;SDS011;6713;50.954;5.310;2023-10-09T03:12:06;7.53;;;6.23;;
13289;SDS011;6713;50.954;5.310;2023-10-09T03:14:35;8.10;;;5.57;;
13289;SDS011;6713;50.954;5.310;2023-10-09T03:17:03;11.33;;;6.60;;
13289;SDS011;6713;50.954;5.310;2023-10-09T03:19:32;9.43;;;6.83;;
13289;SDS011;6713;50.954;5.310;2023-10-09T03:22:02;10.73;;;7.33;;
13289;SDS011;6713;50.954;5.310;2023-10-09T03:24:28;10.43;;;7.43;;
13289;SDS011;6713;50.954;5.310;2023-10-09T03:26:56;9.43;;;7.43;;
13289;SDS011;6713;50.954;5.310;2023-10-09T03:29:22;9.33;;;6.53;;
13289;SDS011;6713;50.954;5.310;2023-10-09T03:31:48;8.20;;;6.60;;
13289;SDS011;6713;50.954;5.310;2023-10-09T03:34:15;9.37;;;7.13;;
13289;SDS011;6713;50.954;5.310;2023-10-09T03:36:44;9.83;;;6.73;;
13289;SDS011;6713;50.954;5.310;2023-10-09T03:39:10;9.63;;;7.33;;
13289;SDS011;6713;50.954;5.310;2023-10-09T03:41:49;8.20;;;5.90;;
13289;SDS011;6713;50.954;5.310;2023-10-09T03:44:16;9.73;;;6.70;;
13289;SDS011;6713;50.954;5.310;2023-10-09T03:46:43;11.60;;;7.37;;
13289;SDS011;6713;50.954;5.310;2023-10-09T03:49:10;9.33;;;6.83;;
13289;SDS011;6713;50.954;5.310;2023-10-09T03:51:38;11.80;;;7.40;;
13289;SDS011;6713;50.954;5.310;2023-10-09T03:54:08;10.43;;;7.07;;
13289;SDS011;6713;50.954;5.310;2023-10-09T03:56:35;12.83;;;7.13;;
13289;SDS011;6713;50.954;5.310;2023-10-09T03:59:01;10.73;;;6.83;;
13289;SDS011;6713;50.954;5.310;2023-10-09T04:01:30;10.10;;;6.83;;
13289;SDS011;6713;50.954;5.310;2023-10-09T04:04:03;9.30;;;7.23;;
13289;SDS011;6713;50.954;5.310;2023-10-09T04:06:32;10.10;;;6.27;;
13289;SDS011;6713;50.954;5.310;2023-10-09T04:08:59;11.23;;;6.60;;
13289;SDS011;6713;50.954;5.310;2023-10-09T04:11:36;12.23;;;6.10;;
13289;SDS011;6713;50.954;5.310;2023-10-09T04:14:07;11.37;;;6.87;;
13289;SDS011;6713;50.954;5.310;2023-10-09T04:16:37;11.10;;;7.23;;
13289;SDS011;6713;50.954;5.310;2023-10-09T04:19:16;9.47;;;7.20;;
13289;SDS011;6713;50.954;5.310;2023-10-09T04:21:47;10.07;;;6.87;;
13289;SDS011;6713;50.954;5.310;2023-10-09T04:24:13;12.93;;;7.53;;
13289;SDS011;6713;50.954;5.310;2023-10-09T04:26:50;13.07;;;6.93;;
13289;SDS011;6713;50.954;5.310;2023-10-09T04:29:22;12.30;;;7.03;;
13289;SDS011;6713;50.954;5.310;2023-10-09T04:32:03;10.67;;;6.50;;
13289;SDS011;6713;50.954;5.310;2023-10-09T04:34:33;9.23;;;7.07;;
13289;SDS011;6713;50.954;5.310;2023-10-09T04:37:01;13.27;;;7.00;;
13289;SDS011;6713;50.954;5.310;2023-10-09T04:39:44;14.00;;;8.80;;
13289;SDS011;6713;50.954;5.310;2023-10-09T04:42:14;9.43;;;6.20;;
13289;SDS011;6713;50.954;5.310;2023-10-09T04:45:01;14.57;;;6.80;;
13289;SDS011;6713;50.954;5.310;2023-10-09T04:47:45;10.63;;;6.80;;
13289;SDS011;6713;50.954;5.310;2023-10-09T04:50:24;9.10;;;6.60;;
13289;SDS011;6713;50.954;5.310;2023-10-09T04:53:10;8.47;;;6.67;;
13289;SDS011;6713;50.954;5.310;2023-10-09T04:55:48;8.63;;;6.73;;
13289;SDS011;6713;50.954;5.310;2023-10-09T04:58:20;10.87;;;6.90;;
13289;SDS011;6713;50.954;5.310;2023-10-09T05:00:50;10.13;;;7.50;;
13289;SDS011;6713;50.954;5.310;2023-10-09T05:03:29;10.37;;;7.40;;
13289;SDS011;6713;50.954;5.310;2023-10-09T05:06:08;12.57;;;7.57;;
13289;SDS011;6713;50.954;5.310;2023-10-09T05:08:46;9.73;;;7.00;;
13289;SDS011;6713;50.954;5.310;2023-10-09T05:11:13;12.93;;;7.20;;
13289;SDS011;6713;50.954;5.310;2023-10-09T05:14:00;10.90;;;7.23;;
13289;SDS011;6713;50.954;5.310;2023-10-09T05:16:38;8.80;;;7.10;;
13289;SDS011;6713;50.954;5.310;2023-10-09T05:19:19;8.93;;;6.53;;
13289;SDS011;6713;50.954;5.310;2023-10-09T05:21:59;12.00;;;8.63;;
13289;SDS011;6713;50.954;5.310;2023-10-09T05:24:29;8.30;;;6.63;;
13289;SDS011;6713;50.954;5.310;2023-10-09T05:27:07;11.93;;;7.97;;
13289;SDS011;6713;50.954;5.310;2023-10-09T05:29:44;9.70;;;7.10;;
13289;SDS011;6713;50.954;5.310;2023-10-09T05:32:24;9.13;;;5.93;;
13289;SDS011;6713;50.954;5.310;2023-10-09T05:34:55;11.30;;;7.03;;
13289;SDS011;6713;50.954;5.310;2023-10-09T05:37:40;8.77;;;6.57;;
13289;SDS011;6713;50.954;5.310;2023-10-09T05:40:09;11.47;;;7.03;;
13289;SDS011;6713;50.954;5.310;2023-10-09T05:42:48;8.97;;;6.67;;
13289;SDS011;6713;50.954;5.310;2023-10-09T05:45:24;12.10;;;7.27;;
13289;SDS011;6713;50.954;5.310;2023-10-09T05:48:20;10.43;;;6.97;;
13289;SDS011;6713;50.954;5.310;2023-10-09T05:51:04;10.30;;;6.60;;
13289;SDS011;6713;50.954;5.310;2023-10-09T05:53:56;10.67;;;6.60;;
13289;SDS011;6713;50.954;5.310;2023-10-09T05:56:37;10.13;;;6.80;;
13289;SDS011;6713;50.954;5.310;2023-10-09T05:59:21;10.73;;;7.63;;
13289;SDS011;6713;50.954;5.310;2023-10-09T06:02:06;8.90;;;6.57;;
13289;SDS011;6713;50.954;5.310;2023-10-09T06:04:50;11.30;;;7.50;;
13289;SDS011;6713;50.954;5.310;2023-10-09T06:07:19;8.57;;;5.83;;
13289;SDS011;6713;50.954;5.310;2023-10-09T06:09:49;8.10;;;6.17;;
13289;SDS011;6713;50.954;5.310;2023-10-09T06:12:14;11.17;;;7.33;;
13289;SDS011;6713;50.954;5.310;2023-10-09T06:14:58;12.40;;;7.87;;
13289;SDS011;6713;50.954;5.310;2023-10-09T06:17:45;11.03;;;7.30;;
13289;SDS011;6713;50.954;5.310;2023-10-09T06:20:15;11.00;;;7.27;;
13289;SDS011;6713;50.954;5.310;2023-10-09T06:22:55;9.17;;;7.57;;
13289;SDS011;6713;50.954;5.310;2023-10-09T06:25:29;12.67;;;7.20;;
13289;SDS011;6713;50.954;5.310;2023-10-09T06:27:58;11.13;;;6.67;;
13289;SDS011;6713;50.954;5.310;2023-10-09T06:30:25;11.87;;;7.27;;
13289;SDS011;6713;50.954;5.310;2023-10-09T06:32:53;11.70;;;8.17;;
13289;SDS011;6713;50.954;5.310;2023-10-09T06:35:44;10.40;;;7.57;;
13289;SDS011;6713;50.954;5.310;2023-10-09T06:38:18;9.47;;;6.80;;
13289;SDS011;6713;50.954;5.310;2023-10-09T06:40:48;13.87;;;7.07;;
13289;SDS011;6713;50.954;5.310;2023-10-09T06:43:32;13.23;;;7.93;;
13289;SDS011;6713;50.954;5.310;2023-10-09T06:46:01;9.77;;;7.90;;
13289;SDS011;6713;50.954;5.310;2023-10-09T06:48:43;11.73;;;7.77;;
13289;SDS011;6713;50.954;5.310;2023-10-09T06:51:20;9.73;;;7.87;;
13289;SDS011;6713;50.954;5.310;2023-10-09T06:53:59;10.60;;;6.60;;
13289;SDS011;6713;50.954;5.310;2023-10-09T06:56:29;10.00;;;6.63;;
13289;SDS011;6713;50.954;5.310;2023-10-09T06:59:15;10.80;;;7.37;;
13289;SDS011;6713;50.954;5.310;2023-10-09T07:01:46;9.37;;;8.30;;
13289;SDS011;6713;50.954;5.310;2023-10-09T07:04:17;11.17;;;7.80;;
13289;SDS011;6713;50.954;5.310;2023-10-09T07:07:06;9.23;;;6.93;;
13289;SDS011;6713;50.954;5.310;2023-10-09T07:09:35;13.00;;;7.93;;
13289;SDS011;6713;50.954;5.310;2023-10-09T07:12:08;10.53;;;7.10;;
13289;SDS011;6713;50.954;5.310;2023-10-09T07:14:35;12.43;;;8.10;;
13289;SDS011;6713;50.954;5.310;2023-10-09T07:17:46;11.57;;;7.57;;
13289;SDS011;6713;50.954;5.310;2023-10-09T07:20:13;9.33;;;6.70;;
13289;SDS011;6713;50.954;5.310;2023-10-09T07:22:40;15.13;;;8.00;;
13289;SDS011;6713;50.954;5.310;2023-10-09T07:25:19;9.93;;;7.30;;
13289;SDS011;6713;50.954;5.310;2023-10-09T07:28:06;10.03;;;7.27;;
13289;SDS011;6713;50.954;5.310;2023-10-09T07:30:43;10.60;;;8.17;;
13289;SDS011;6713;50.954;5.310;2023-10-09T07:33:11;17.10;;;8.83;;
13289;SDS011;6713;50.954;5.310;2023-10-09T07:35:44;19.63;;;9.03;;
13289;SDS011;6713;50.954;5.310;2023-10-09T07:38:23;18.67;;;8.40;;
13289;SDS011;6713;50.954;5.310;2023-10-09T07:40:53;15.07;;;7.97;;
13289;SDS011;6713;50.954;5.310;2023-10-09T07:43:25;18.83;;;9.20;;
13289;SDS011;6713;50.954;5.310;2023-10-09T07:45:53;11.30;;;8.63;;
13289;SDS011;6713;50.954;5.310;2023-10-09T07:48:41;12.47;;;8.43;;
13289;SDS011;6713;50.954;5.310;2023-10-09T07:51:18;13.40;;;8.90;;
13289;SDS011;6713;50.954;5.310;2023-10-09T07:53:48;14.67;;;8.80;;
13289;SDS011;6713;50.954;5.310;2023-10-09T07:56:15;13.27;;;7.97;;
13289;SDS011;6713;50.954;5.310;2023-10-09T07:58:46;13.83;;;8.87;;
13289;SDS011;6713;50.954;5.310;2023-10-09T08:01:12;13.97;;;9.07;;
13289;SDS011;6713;50.954;5.310;2023-10-09T08:03:47;10.93;;;6.97;;
13289;SDS011;6713;50.954;5.310;2023-10-09T08:06:23;13.13;;;8.70;;
13289;SDS011;6713;50.954;5.310;2023-10-09T08:09:04;14.33;;;8.07;;
13289;SDS011;6713;50.954;5.310;2023-10-09T08:12:11;13.17;;;9.47;;
13289;SDS011;6713;50.954;5.310;2023-10-09T08:15:00;10.43;;;7.90;;
13289;SDS011;6713;50.954;5.310;2023-10-09T08:17:45;12.50;;;8.27;;
13289;SDS011;6713;50.954;5.310;2023-10-09T08:20:16;12.60;;;8.50;;
13289;SDS011;6713;50.954;5.310;2023-10-09T08:22:43;12.83;;;7.87;;
13289;SDS011;6713;50.954;5.310;2023-10-09T08:25:15;14.80;;;9.03;;
13289;SDS011;6713;50.954;5.310;2023-10-09T08:27:55;11.47;;;8.07;;
13289;SDS011;6713;50.954;5.310;2023-10-09T08:30:22;13.17;;;8.27;;
13289;SDS011;6713;50.954;5.310;2023-10-09T08:33:06;12.37;;;8.20;;
13289;SDS011;6713;50.954;5.310;2023-10-09T08:35:53;11.17;;;7.50;;
13289;SDS011;6713;50.954;5.310;2023-10-09T08:38:28;10.77;;;7.87;;
13289;SDS011;6713;50.954;5.310;2023-10-09T08:40:58;12.07;;;7.47;;
13289;SDS011;6713;50.954;5.310;2023-10-09T08:43:34;9.13;;;7.33;;
13289;SDS011;6713;50.954;5.310;2023-10-09T08:46:03;11.17;;;7.83;;
13289;SDS011;6713;50.954;5.310;2023-10-09T08:48:31;13.83;;;8.17;;
13289;SDS011;6713;50.954;5.310;2023-10-09T08:50:58;10.63;;;7.70;;
13289;SDS011;6713;50.954;5.310;2023-10-09T08:53:25;12.67;;;8.13;;
13289;SDS011;6713;50.954;5.310;2023-10-09T08:55:54;12.73;;;7.50;;
13289;SDS011;6713;50.954;5.310;2023-10-09T08:58:20;8.50;;;6.90;;
13289;SDS011;6713;50.954;5.310;2023-10-09T09:00:50;12.23;;;7.57;;
13289;SDS011;6713;50.954;5.310;2023-10-09T09:03:17;11.13;;;7.30;;
13289;SDS011;6713;50.954;5.310;2023-10-09T09:05:45;12.40;;;7.57;;
13289;SDS011;6713;50.954;5.310;2023-10-09T09:10:57;10.10;;;6.83;;
13289;SDS011;6713;50.954;5.310;2023-10-09T09:13:36;10.83;;;7.27;;
13289;SDS011;6713;50.954;5.310;2023-10-09T09:16:03;12.83;;;8.40;;
13289;SDS011;6713;50.954;5.310;2023-10-09T09:18:29;11.80;;;7.43;;
13289;SDS011;6713;50.954;5.310;2023-10-09T09:21:01;10.50;;;7.00;;
13289;SDS011;6713;50.954;5.310;2023-10-09T09:23:41;11.37;;;7.33;;
13289;SDS011;6713;50.954;5.310;2023-10-09T09:26:20;20.17;;;8.10;;
13289;SDS011;6713;50.954;5.310;2023-10-09T09:29:01;10.70;;;6.70;;
13289;SDS011;6713;50.954;5.310;2023-10-09T09:31:28;10.87;;;7.93;;
13289;SDS011;6713;50.954;5.310;2023-10-09T09:34:02;11.13;;;7.23;;
13289;SDS011;6713;50.954;5.310;2023-10-09T09:36:33;10.73;;;6.97;;
13289;SDS011;6713;50.954;5.310;2023-10-09T09:39:00;11.30;;;7.53;;
13289;SDS011;6713;50.954;5.310;2023-10-09T09:41:30;8.63;;;7.33;;
13289;SDS011;6713;50.954;5.310;2023-10-09T09:43:59;11.10;;;6.73;;
13289;SDS011;6713;50.954;5.310;2023-10-09T09:46:26;10.03;;;6.13;;
13289;SDS011;6713;50.954;5.310;2023-10-09T09:48:58;10.47;;;6.17;;
13289;SDS011;6713;50.954;5.310;2023-10-09T09:51:26;10.30;;;6.30;;
13289;SDS011;6713;50.954;5.310;2023-10-09T09:53:54;13.87;;;8.60;;
13289;SDS011;6713;50.954;5.310;2023-10-09T09:56:21;11.90;;;7.20;;
13289;SDS011;6713;50.954;5.310;2023-10-09T09:58:51;10.27;;;6.00;;
13289;SDS011;6713;50.954;5.310;2023-10-09T10:01:18;13.27;;;6.90;;
13289;SDS011;6713;50.954;5.310;2023-10-09T10:03:50;9.63;;;7.40;;
13289;SDS011;6713;50.954;5.310;2023-10-09T10:06:17;10.57;;;6.67;;
13289;SDS011;6713;50.954;5.310;2023-10-09T10:08:44;8.90;;;6.40;;
13289;SDS011;6713;50.954;5.310;2023-10-09T10:13:59;7.73;;;5.83;;
13289;SDS011;6713;50.954;5.310;2023-10-09T10:16:31;13.70;;;6.13;;
13289;SDS011;6713;50.954;5.310;2023-10-09T10:19:00;11.90;;;6.63;;
13289;SDS011;6713;50.954;5.310;2023-10-09T10:21:46;9.17;;;6.17;;
13289;SDS011;6713;50.954;5.310;2023-10-09T10:24:40;11.00;;;6.60;;
13289;SDS011;6713;50.954;5.310;2023-10-09T10:27:18;9.03;;;5.80;;
13289;SDS011;6713;50.954;5.310;2023-10-09T10:30:02;9.90;;;6.40;;
13289;SDS011;6713;50.954;5.310;2023-10-09T10:32:52;10.40;;;5.93;;
13289;SDS011;6713;50.954;5.310;2023-10-09T10:35:19;10.60;;;6.53;;
13289;SDS011;6713;50.954;5.310;2023-10-09T10:37:57;11.70;;;6.80;;
13289;SDS011;6713;50.954;5.310;2023-10-09T10:40:36;8.97;;;6.13;;
13289;SDS011;6713;50.954;5.310;2023-10-09T10:43:05;9.87;;;5.90;;
13289;SDS011;6713;50.954;5.310;2023-10-09T10:45:40;10.00;;;6.13;;
13289;SDS011;6713;50.954;5.310;2023-10-09T10:48:09;8.20;;;5.97;;
13289;SDS011;6713;50.954;5.310;2023-10-09T10:50:48;7.83;;;6.03;;
13289;SDS011;6713;50.954;5.310;2023-10-09T10:53:14;8.23;;;5.43;;
13289;SDS011;6713;50.954;5.310;2023-10-09T10:55:54;6.80;;;5.17;;
13289;SDS011;6713;50.954;5.310;2023-10-09T10:58:21;8.80;;;5.43;;
13289;SDS011;6713;50.954;5.310;2023-10-09T11:01:01;11.10;;;5.83;;
13289;SDS011;6713;50.954;5.310;2023-10-09T11:03:40;9.43;;;5.33;;
13289;SDS011;6713;50.954;5.310;2023-10-09T11:06:24;7.90;;;4.97;;
13289;SDS011;6713;50.954;5.310;2023-10-09T11:09:00;7.33;;;5.20;;
13289;SDS011;6713;50.954;5.310;2023-10-09T11:11:34;8.67;;;5.43;;
13289;SDS011;6713;50.954;5.310;2023-10-09T11:14:09;7.87;;;4.70;;
13289;SDS011;6713;50.954;5.310;2023-10-09T11:16:40;7.43;;;4.70;;
13289;SDS011;6713;50.954;5.310;2023-10-09T11:19:13;10.33;;;5.03;;
13289;SDS011;6713;50.954;5.310;2023-10-09T11:21:54;6.93;;;4.97;;
13289;SDS011;6713;50.954;5.310;2023-10-09T11:24:44;6.23;;;4.20;;
13289;SDS011;6713;50.954;5.310;2023-10-09T11:27:12;5.10;;;4.07;;
13289;SDS011;6713;50.954;5.310;2023-10-09T11:29:47;6.53;;;4.43;;
13289;SDS011;6713;50.954;5.310;2023-10-09T11:32:21;8.87;;;6.07;;
13289;SDS011;6713;50.954;5.310;2023-10-09T11:34:48;7.47;;;3.73;;
13289;SDS011;6713;50.954;5.310;2023-10-09T11:37:18;9.60;;;4.60;;
13289;SDS011;6713;50.954;5.310;2023-10-09T11:39:57;8.13;;;4.97;;
13289;SDS011;6713;50.954;5.310;2023-10-09T11:42:27;10.30;;;4.93;;
13289;SDS011;6713;50.954;5.310;2023-10-09T11:45:03;6.87;;;4.67;;
13289;SDS011;6713;50.954;5.310;2023-10-09T11:47:45;6.57;;;4.10;;
13289;SDS011;6713;50.954;5.310;2023-10-09T11:50:19;7.53;;;4.63;;
13289;SDS011;6713;50.954;5.310;2023-10-09T11:52:55;8.37;;;4.40;;
13289;SDS011;6713;50.954;5.310;2023-10-09T11:55:40;9.63;;;4.93;;
13289;SDS011;6713;50.954;5.310;2023-10-09T11:58:06;6.53;;;4.43;;
13289;SDS011;6713;50.954;5.310;2023-10-09T12:00:33;7.00;;;5.10;;
13289;SDS011;6713;50.954;5.310;2023-10-09T12:03:12;6.50;;;4.10;;
13289;SDS011;6713;50.954;5.310;2023-10-09T12:05:39;7.90;;;5.23;;
13289;SDS011;6713;50.954;5.310;2023-10-09T12:08:09;7.97;;;4.90;;
13289;SDS011;6713;50.954;5.310;2023-10-09T12:10:36;7.23;;;5.20;;
13289;SDS011;6713;50.954;5.310;2023-10-09T12:13:03;7.77;;;4.53;;
13289;SDS011;6713;50.954;5.310;2023-10-09T12:15:29;6.10;;;4.07;;
13289;SDS011;6713;50.954;5.310;2023-10-09T12:18:02;6.60;;;4.30;;
13289;SDS011;6713;50.954;5.310;2023-10-09T12:20:30;7.37;;;4.43;;
13289;SDS011;6713;50.954;5.310;2023-10-09T12:22:57;7.67;;;4.50;;
13289;SDS011;6713;50.954;5.310;2023-10-09T12:25:23;8.53;;;4.43;;
13289;SDS011;6713;50.954;5.310;2023-10-09T12:27:50;8.57;;;5.07;;
13289;SDS011;6713;50.954;5.310;2023-10-09T12:30:19;8.70;;;5.30;;
13289;SDS011;6713;50.954;5.310;2023-10-09T12:32:51;7.27;;;4.00;;
13289;SDS011;6713;50.954;5.310;2023-10-09T12:35:18;8.43;;;5.27;;
13289;SDS011;6713;50.954;5.310;2023-10-09T12:37:47;8.13;;;4.90;;
13289;SDS011;6713;50.954;5.310;2023-10-09T12:40:14;9.03;;;4.60;;
13289;SDS011;6713;50.954;5.310;2023-10-09T12:42:49;6.93;;;4.40;;
13289;SDS011;6713;50.954;5.310;2023-10-09T12:45:15;5.90;;;4.03;;
13289;SDS011;6713;50.954;5.310;2023-10-09T12:47:43;8.77;;;4.63;;
13289;SDS011;6713;50.954;5.310;2023-10-09T12:50:11;6.40;;;4.40;;
13289;SDS011;6713;50.954;5.310;2023-10-09T12:52:39;7.13;;;5.17;;
13289;SDS011;6713;50.954;5.310;2023-10-09T12:55:07;6.23;;;4.40;;
13289;SDS011;6713;50.954;5.310;2023-10-09T12:57:43;8.47;;;4.50;;
13289;SDS011;6713;50.954;5.310;2023-10-09T13:00:09;9.03;;;4.90;;
13289;SDS011;6713;50.954;5.310;2023-10-09T13:02:36;6.80;;;4.20;;
13289;SDS011;6713;50.954;5.310;2023-10-09T13:05:08;8.03;;;4.70;;
13289;SDS011;6713;50.954;5.310;2023-10-09T13:07:43;9.23;;;4.50;;
13289;SDS011;6713;50.954;5.310;2023-10-09T13:10:11;8.53;;;5.17;;
13289;SDS011;6713;50.954;5.310;2023-10-09T13:12:38;9.93;;;4.80;;
13289;SDS011;6713;50.954;5.310;2023-10-09T13:15:07;7.20;;;5.17;;
13289;SDS011;6713;50.954;5.310;2023-10-09T13:17:34;7.00;;;3.97;;
13289;SDS011;6713;50.954;5.310;2023-10-09T13:20:01;9.53;;;5.93;;
13289;SDS011;6713;50.954;5.310;2023-10-09T13:22:37;9.17;;;4.77;;
13289;SDS011;6713;50.954;5.310;2023-10-09T13:25:04;5.73;;;4.00;;
13289;SDS011;6713;50.954;5.310;2023-10-09T13:27:32;8.33;;;4.50;;
13289;SDS011;6713;50.954;5.310;2023-10-09T13:29:59;6.90;;;4.80;;
13289;SDS011;6713;50.954;5.310;2023-10-09T13:32:30;9.03;;;4.90;;
13289;SDS011;6713;50.954;5.310;2023-10-09T13:34:58;8.07;;;5.20;;
13289;SDS011;6713;50.954;5.310;2023-10-09T13:37:27;11.00;;;5.10;;
13289;SDS011;6713;50.954;5.310;2023-10-09T13:39:56;8.57;;;5.00;;
13289;SDS011;6713;50.954;5.310;2023-10-09T13:42:22;8.50;;;5.33;;
13289;SDS011;6713;50.954;5.310;2023-10-09T13:44:52;9.53;;;5.03;;
13289;SDS011;6713;50.954;5.310;2023-10-09T13:47:19;6.83;;;4.47;;
13289;SDS011;6713;50.954;5.310;2023-10-09T13:49:46;6.17;;;4.23;;
13289;SDS011;6713;50.954;5.310;2023-10-09T13:52:15;7.37;;;4.87;;
13289;SDS011;6713;50.954;5.310;2023-10-09T13:54:43;8.47;;;4.50;;
13289;SDS011;6713;50.954;5.310;2023-10-09T13:57:13;8.27;;;4.57;;
13289;SDS011;6713;50.954;5.310;2023-10-09T13:59:40;6.73;;;4.73;;
13289;SDS011;6713;50.954;5.310;2023-10-09T14:02:15;7.90;;;5.30;;
13289;SDS011;6713;50.954;5.310;2023-10-09T14:04:44;7.23;;;4.43;;
13289;SDS011;6713;50.954;5.310;2023-10-09T14:07:10;7.87;;;5.00;;
13289;SDS011;6713;50.954;5.310;2023-10-09T14:09:41;9.80;;;5.30;;
13289;SDS011;6713;50.954;5.310;2023-10-09T14:12:20;9.40;;;5.83;;
13289;SDS011;6713;50.954;5.310;2023-10-09T14:14:47;7.77;;;5.10;;
13289;SDS011;6713;50.954;5.310;2023-10-09T14:17:16;7.93;;;4.50;;
13289;SDS011;6713;50.954;5.310;2023-10-09T14:19:46;9.87;;;5.20;;
13289;SDS011;6713;50.954;5.310;2023-10-09T14:22:13;9.00;;;5.20;;
13289;SDS011;6713;50.954;5.310;2023-10-09T14:24:40;7.63;;;4.87;;
13289;SDS011;6713;50.954;5.310;2023-10-09T14:27:10;8.50;;;5.80;;
13289;SDS011;6713;50.954;5.310;2023-10-09T14:29:42;8.00;;;5.80;;
13289;SDS011;6713;50.954;5.310;2023-10-09T14:32:09;8.00;;;5.37;;
13289;SDS011;6713;50.954;5.310;2023-10-09T14:34:39;12.23;;;5.50;;
13289;SDS011;6713;50.954;5.310;2023-10-09T14:37:08;9.03;;;4.37;;
13289;SDS011;6713;50.954;5.310;2023-10-09T14:39:37;7.87;;;5.10;;
13289;SDS011;6713;50.954;5.310;2023-10-09T14:42:03;6.57;;;4.97;;
13289;SDS011;6713;50.954;5.310;2023-10-09T14:44:34;6.83;;;4.90;;
13289;SDS011;6713;50.954;5.310;2023-10-09T14:47:02;5.97;;;4.70;;
13289;SDS011;6713;50.954;5.310;2023-10-09T14:49:30;8.83;;;5.10;;
13289;SDS011;6713;50.954;5.310;2023-10-09T14:52:01;7.00;;;4.63;;
13289;SDS011;6713;50.954;5.310;2023-10-09T14:54:28;10.10;;;5.33;;
13289;SDS011;6713;50.954;5.310;2023-10-09T14:56:54;7.87;;;4.30;;
13289;SDS011;6713;50.954;5.310;2023-10-09T14:59:21;6.67;;;4.80;;
13289;SDS011;6713;50.954;5.310;2023-10-09T15:01:48;7.97;;;5.23;;
13289;SDS011;6713;50.954;5.310;2023-10-09T15:04:15;16.60;;;4.80;;
13289;SDS011;6713;50.954;5.310;2023-10-09T15:06:41;8.93;;;5.23;;
13289;SDS011;6713;50.954;5.310;2023-10-09T15:09:09;7.37;;;5.23;;
13289;SDS011;6713;50.954;5.310;2023-10-09T15:11:47;7.93;;;5.97;;
13289;SDS011;6713;50.954;5.310;2023-10-09T15:14:13;8.40;;;5.23;;
13289;SDS011;6713;50.954;5.310;2023-10-09T15:16:39;7.67;;;4.83;;
13289;SDS011;6713;50.954;5.310;2023-10-09T15:19:07;7.47;;;5.33;;
13289;SDS011;6713;50.954;5.310;2023-10-09T15:21:35;9.83;;;6.27;;
13289;SDS011;6713;50.954;5.310;2023-10-09T15:24:07;8.20;;;5.70;;
13289;SDS011;6713;50.954;5.310;2023-10-09T15:26:35;8.63;;;5.87;;
13289;SDS011;6713;50.954;5.310;2023-10-09T15:29:02;12.30;;;5.87;;
13289;SDS011;6713;50.954;5.310;2023-10-09T15:31:31;8.80;;;5.73;;